Terminal Aerodrome Forecast
Issued by NWS Wakefield, VA

Home | Current Version | Previous Version | Text Only | Print | Product List | Glossary On
Versions: 1 2 3 4 5 6 7 8 9 10 11 12 13 14 15 16 17 18 19 20 21 22
997
FTUS41 KAKQ 191725
TAFECG
TAF
KECG 191725Z 1918/2018 32015G22KT P6SM -RA BKN035 OVC050
     FM192000 33013G20KT P6SM VCSH BKN035 OVC050
     FM192300 32008KT P6SM BKN050
     FM200000 31007KT P6SM SCT045
     FM200600 27006KT P6SM SKC=

USA.gov is the U.S. government's official web portal to all federal, state and local government web resources and services.